sensor_id;sensor_type;location;lat;lon;timestamp;temperature;humidity
55642;DHT22;41509;53.108;6.100;2023-01-28T00:01:09;2.80;99.90
55642;DHT22;41509;53.108;6.100;2023-01-28T00:03:35;2.70;99.90
55642;DHT22;41509;53.108;6.100;2023-01-28T00:06:04;2.70;99.90
55642;DHT22;41509;53.108;6.100;2023-01-28T00:08:31;2.80;99.90
55642;DHT22;41509;53.108;6.100;2023-01-28T00:10:59;2.80;99.90
55642;DHT22;41509;53.108;6.100;2023-01-28T00:13:26;2.80;99.90
55642;DHT22;41509;53.108;6.100;2023-01-28T00:15:57;2.70;99.90
55642;DHT22;41509;53.108;6.100;2023-01-28T00:18:24;2.70;99.90
55642;DHT22;41509;53.108;6.100;2023-01-28T00:21:16;2.80;99.90
55642;DHT22;41509;53.108;6.100;2023-01-28T00:23:42;2.70;99.90
55642;DHT22;41509;53.108;6.100;2023-01-28T00:26:13;2.80;99.90
55642;DHT22;41509;53.108;6.100;2023-01-28T00:28:40;2.70;99.90
55642;DHT22;41509;53.108;6.100;2023-01-28T00:31:13;2.70;99.90
55642;DHT22;41509;53.108;6.100;2023-01-28T00:33:41;2.70;99.90
55642;DHT22;41509;53.108;6.100;2023-01-28T00:36:07;2.70;99.90
55642;DHT22;41509;53.108;6.100;2023-01-28T00:38:34;2.70;99.90
55642;DHT22;41509;53.108;6.100;2023-01-28T00:41:14;2.80;99.90
55642;DHT22;41509;53.108;6.100;2023-01-28T00:43:41;2.70;99.90
55642;DHT22;41509;53.108;6.100;2023-01-28T00:46:08;2.70;99.90
55642;DHT22;41509;53.108;6.100;2023-01-28T00:48:35;2.70;99.90
55642;DHT22;41509;53.108;6.100;2023-01-28T00:51:02;2.70;99.90
55642;DHT22;41509;53.108;6.100;2023-01-28T00:53:28;2.70;99.90
55642;DHT22;41509;53.108;6.100;2023-01-28T00:55:54;2.70;99.90
55642;DHT22;41509;53.108;6.100;2023-01-28T00:58:20;2.70;99.90
55642;DHT22;41509;53.108;6.100;2023-01-28T01:00:47;2.80;99.90
55642;DHT22;41509;53.108;6.100;2023-01-28T01:03:12;2.80;99.90
55642;DHT22;41509;53.108;6.100;2023-01-28T01:05:38;2.70;99.90
55642;DHT22;41509;53.108;6.100;2023-01-28T01:08:04;2.70;99.90
55642;DHT22;41509;53.108;6.100;2023-01-28T01:10:30;2.80;99.90
55642;DHT22;41509;53.108;6.100;2023-01-28T01:12:55;2.70;99.90
55642;DHT22;41509;53.108;6.100;2023-01-28T01:15:23;2.70;99.90
55642;DHT22;41509;53.108;6.100;2023-01-28T01:17:49;2.70;99.90
55642;DHT22;41509;53.108;6.100;2023-01-28T01:20:20;2.70;99.90
55642;DHT22;41509;53.108;6.100;2023-01-28T01:22:46;2.70;99.90
55642;DHT22;41509;53.108;6.100;2023-01-28T01:25:13;2.70;99.90
55642;DHT22;41509;53.108;6.100;2023-01-28T01:27:43;2.70;99.90
55642;DHT22;41509;53.108;6.100;2023-01-28T01:30:11;2.80;99.90
55642;DHT22;41509;53.108;6.100;2023-01-28T01:32:37;2.70;99.90
55642;DHT22;41509;53.108;6.100;2023-01-28T01:35:04;2.80;99.90
55642;DHT22;41509;53.108;6.100;2023-01-28T01:37:35;2.70;99.90
55642;DHT22;41509;53.108;6.100;2023-01-28T01:40:03;2.70;99.90
55642;DHT22;41509;53.108;6.100;2023-01-28T01:42:31;2.70;99.90
55642;DHT22;41509;53.108;6.100;2023-01-28T01:45:11;2.80;99.90
55642;DHT22;41509;53.108;6.100;2023-01-28T01:47:46;2.80;99.90
55642;DHT22;41509;53.108;6.100;2023-01-28T01:50:39;2.80;99.90
55642;DHT22;41509;53.108;6.100;2023-01-28T01:53:16;2.70;99.90
55642;DHT22;41509;53.108;6.100;2023-01-28T01:55:46;2.70;99.90
55642;DHT22;41509;53.108;6.100;2023-01-28T01:58:15;2.70;99.90
55642;DHT22;41509;53.108;6.100;2023-01-28T02:00:42;2.70;99.90
55642;DHT22;41509;53.108;6.100;2023-01-28T02:03:09;2.70;99.90
55642;DHT22;41509;53.108;6.100;2023-01-28T02:05:35;2.80;99.90
55642;DHT22;41509;53.108;6.100;2023-01-28T02:08:01;2.70;99.90
55642;DHT22;41509;53.108;6.100;2023-01-28T02:10:49;2.80;99.90
55642;DHT22;41509;53.108;6.100;2023-01-28T02:13:18;2.70;99.90
55642;DHT22;41509;53.108;6.100;2023-01-28T02:15:45;2.80;99.90
55642;DHT22;41509;53.108;6.100;2023-01-28T02:18:12;2.80;99.90
55642;DHT22;41509;53.108;6.100;2023-01-28T02:21:11;2.80;99.90
55642;DHT22;41509;53.108;6.100;2023-01-28T02:23:57;2.80;99.90
55642;DHT22;41509;53.108;6.100;2023-01-28T02:27:06;2.80;99.90
55642;DHT22;41509;53.108;6.100;2023-01-28T02:30:12;2.80;99.90
55642;DHT22;41509;53.108;6.100;2023-01-28T02:35:21;2.70;99.90
55642;DHT22;41509;53.108;6.100;2023-01-28T02:37:56;2.70;99.90
55642;DHT22;41509;53.108;6.100;2023-01-28T02:40:45;2.70;99.90
55642;DHT22;41509;53.108;6.100;2023-01-28T02:43:38;2.70;99.90
55642;DHT22;41509;53.108;6.100;2023-01-28T02:49:47;2.70;99.90
55642;DHT22;41509;53.108;6.100;2023-01-28T02:55:21;2.70;99.90
55642;DHT22;41509;53.108;6.100;2023-01-28T02:57:57;2.70;99.90
55642;DHT22;41509;53.108;6.100;2023-01-28T03:00:26;2.80;99.90
55642;DHT22;41509;53.108;6.100;2023-01-28T03:02:58;2.80;99.90
55642;DHT22;41509;53.108;6.100;2023-01-28T03:05:34;2.70;99.90
55642;DHT22;41509;53.108;6.100;2023-01-28T03:08:03;2.70;99.90
55642;DHT22;41509;53.108;6.100;2023-01-28T03:10:51;2.70;99.90
55642;DHT22;41509;53.108;6.100;2023-01-28T03:13:36;2.70;99.90
55642;DHT22;41509;53.108;6.100;2023-01-28T03:16:21;2.80;99.90
55642;DHT22;41509;53.108;6.100;2023-01-28T03:19:06;2.80;99.90
55642;DHT22;41509;53.108;6.100;2023-01-28T03:21:51;2.80;99.90
55642;DHT22;41509;53.108;6.100;2023-01-28T03:24:46;2.80;99.90
55642;DHT22;41509;53.108;6.100;2023-01-28T03:27:45;2.80;99.90
55642;DHT22;41509;53.108;6.100;2023-01-28T03:30:41;2.70;99.90
55642;DHT22;41509;53.108;6.100;2023-01-28T03:33:28;2.80;99.90
55642;DHT22;41509;53.108;6.100;2023-01-28T03:36:13;2.80;99.90
55642;DHT22;41509;53.108;6.100;2023-01-28T03:38:58;2.70;99.90
55642;DHT22;41509;53.108;6.100;2023-01-28T03:41:25;2.80;99.90
55642;DHT22;41509;53.108;6.100;2023-01-28T03:43:51;2.80;99.90
55642;DHT22;41509;53.108;6.100;2023-01-28T03:46:17;2.80;99.90
55642;DHT22;41509;53.108;6.100;2023-01-28T03:48:44;2.80;99.90
55642;DHT22;41509;53.108;6.100;2023-01-28T03:51:10;2.70;99.90
55642;DHT22;41509;53.108;6.100;2023-01-28T03:53:37;2.70;99.90
55642;DHT22;41509;53.108;6.100;2023-01-28T03:56:05;2.70;99.90
55642;DHT22;41509;53.108;6.100;2023-01-28T03:58:31;2.80;99.90
55642;DHT22;41509;53.108;6.100;2023-01-28T04:01:25;2.80;99.90
55642;DHT22;41509;53.108;6.100;2023-01-28T04:03:51;2.70;99.90
55642;DHT22;41509;53.108;6.100;2023-01-28T04:06:18;2.70;99.90
55642;DHT22;41509;53.108;6.100;2023-01-28T04:08:43;2.70;99.90
55642;DHT22;41509;53.108;6.100;2023-01-28T04:11:13;2.80;99.90
55642;DHT22;41509;53.108;6.100;2023-01-28T04:13:47;2.70;99.90
55642;DHT22;41509;53.108;6.100;2023-01-28T04:16:15;2.70;99.90
55642;DHT22;41509;53.108;6.100;2023-01-28T04:18:42;2.70;99.90
55642;DHT22;41509;53.108;6.100;2023-01-28T04:21:08;2.70;99.90
55642;DHT22;41509;53.108;6.100;2023-01-28T04:23:34;2.70;99.90
55642;DHT22;41509;53.108;6.100;2023-01-28T04:26:00;2.70;99.90
55642;DHT22;41509;53.108;6.100;2023-01-28T04:28:25;2.70;99.90
55642;DHT22;41509;53.108;6.100;2023-01-28T04:30:52;2.70;99.90
55642;DHT22;41509;53.108;6.100;2023-01-28T04:33:18;2.70;99.90
55642;DHT22;41509;53.108;6.100;2023-01-28T04:35:43;2.70;99.90
55642;DHT22;41509;53.108;6.100;2023-01-28T04:38:09;2.70;99.90
55642;DHT22;41509;53.108;6.100;2023-01-28T04:40:34;2.70;99.90
55642;DHT22;41509;53.108;6.100;2023-01-28T04:43:00;2.70;99.90
55642;DHT22;41509;53.108;6.100;2023-01-28T04:45:26;2.60;99.90
55642;DHT22;41509;53.108;6.100;2023-01-28T04:47:51;2.60;99.90
55642;DHT22;41509;53.108;6.100;2023-01-28T04:50:17;2.60;99.90
55642;DHT22;41509;53.108;6.100;2023-01-28T04:52:43;2.60;99.90
55642;DHT22;41509;53.108;6.100;2023-01-28T04:55:09;2.60;99.90
55642;DHT22;41509;53.108;6.100;2023-01-28T04:57:35;2.60;99.90
55642;DHT22;41509;53.108;6.100;2023-01-28T05:00:00;2.60;99.90
55642;DHT22;41509;53.108;6.100;2023-01-28T05:02:26;2.60;99.90
55642;DHT22;41509;53.108;6.100;2023-01-28T05:04:52;2.60;99.90
55642;DHT22;41509;53.108;6.100;2023-01-28T05:07:17;2.60;99.90
55642;DHT22;41509;53.108;6.100;2023-01-28T05:09:43;2.60;99.90
55642;DHT22;41509;53.108;6.100;2023-01-28T05:12:09;2.60;99.90
55642;DHT22;41509;53.108;6.100;2023-01-28T05:14:34;2.50;99.90
55642;DHT22;41509;53.108;6.100;2023-01-28T05:17:00;2.50;99.90
55642;DHT22;41509;53.108;6.100;2023-01-28T05:19:25;2.50;99.90
55642;DHT22;41509;53.108;6.100;2023-01-28T05:21:51;2.50;99.90
55642;DHT22;41509;53.108;6.100;2023-01-28T05:24:17;2.50;99.90
55642;DHT22;41509;53.108;6.100;2023-01-28T05:26:42;2.50;99.90
55642;DHT22;41509;53.108;6.100;2023-01-28T05:29:08;2.50;99.90
55642;DHT22;41509;53.108;6.100;2023-01-28T05:31:34;2.50;99.90
55642;DHT22;41509;53.108;6.100;2023-01-28T05:33:59;2.50;99.90
55642;DHT22;41509;53.108;6.100;2023-01-28T05:36:25;2.50;99.90
55642;DHT22;41509;53.108;6.100;2023-01-28T05:38:51;2.50;99.90
55642;DHT22;41509;53.108;6.100;2023-01-28T05:41:17;2.50;99.90
55642;DHT22;41509;53.108;6.100;2023-01-28T05:43:43;2.50;99.90
55642;DHT22;41509;53.108;6.100;2023-01-28T05:46:08;2.50;99.90
55642;DHT22;41509;53.108;6.100;2023-01-28T05:48:34;2.50;99.90
55642;DHT22;41509;53.108;6.100;2023-01-28T05:50:59;2.40;99.90
55642;DHT22;41509;53.108;6.100;2023-01-28T05:53:26;2.40;99.90
55642;DHT22;41509;53.108;6.100;2023-01-28T05:55:52;2.40;99.90
55642;DHT22;41509;53.108;6.100;2023-01-28T05:58:18;2.40;99.90
55642;DHT22;41509;53.108;6.100;2023-01-28T06:00:44;2.50;99.90
55642;DHT22;41509;53.108;6.100;2023-01-28T06:03:10;2.40;99.90
55642;DHT22;41509;53.108;6.100;2023-01-28T06:05:36;2.40;99.90
55642;DHT22;41509;53.108;6.100;2023-01-28T06:08:01;2.40;99.90
55642;DHT22;41509;53.108;6.100;2023-01-28T06:10:27;2.40;99.90
55642;DHT22;41509;53.108;6.100;2023-01-28T06:12:53;2.40;99.90
55642;DHT22;41509;53.108;6.100;2023-01-28T06:15:18;2.40;99.90
55642;DHT22;41509;53.108;6.100;2023-01-28T06:17:44;2.40;99.90
55642;DHT22;41509;53.108;6.100;2023-01-28T06:20:10;2.40;99.90
55642;DHT22;41509;53.108;6.100;2023-01-28T06:22:35;2.40;99.90
55642;DHT22;41509;53.108;6.100;2023-01-28T06:25:01;2.40;99.90
55642;DHT22;41509;53.108;6.100;2023-01-28T06:27:27;2.30;99.90
55642;DHT22;41509;53.108;6.100;2023-01-28T06:29:52;2.30;99.90
55642;DHT22;41509;53.108;6.100;2023-01-28T06:32:18;2.30;99.90
55642;DHT22;41509;53.108;6.100;2023-01-28T06:34:44;2.30;99.90
55642;DHT22;41509;53.108;6.100;2023-01-28T06:37:12;2.30;99.90
55642;DHT22;41509;53.108;6.100;2023-01-28T06:39:38;2.40;99.90
55642;DHT22;41509;53.108;6.100;2023-01-28T06:42:03;2.40;99.90
55642;DHT22;41509;53.108;6.100;2023-01-28T06:44:29;2.30;99.90
55642;DHT22;41509;53.108;6.100;2023-01-28T06:46:55;2.30;99.90
55642;DHT22;41509;53.108;6.100;2023-01-28T06:49:20;2.30;99.90
55642;DHT22;41509;53.108;6.100;2023-01-28T06:51:46;2.30;99.90
55642;DHT22;41509;53.108;6.100;2023-01-28T06:54:12;2.30;99.90
55642;DHT22;41509;53.108;6.100;2023-01-28T06:56:38;2.30;99.90
55642;DHT22;41509;53.108;6.100;2023-01-28T06:59:04;2.30;99.90
55642;DHT22;41509;53.108;6.100;2023-01-28T07:01:29;2.30;99.90
55642;DHT22;41509;53.108;6.100;2023-01-28T07:03:55;2.30;99.90
55642;DHT22;41509;53.108;6.100;2023-01-28T07:06:21;2.30;99.90
55642;DHT22;41509;53.108;6.100;2023-01-28T07:08:47;2.30;99.90
55642;DHT22;41509;53.108;6.100;2023-01-28T07:11:13;2.30;99.90
55642;DHT22;41509;53.108;6.100;2023-01-28T07:13:38;2.30;99.90
55642;DHT22;41509;53.108;6.100;2023-01-28T07:16:04;2.30;99.90
55642;DHT22;41509;53.108;6.100;2023-01-28T07:18:30;2.30;99.90
55642;DHT22;41509;53.108;6.100;2023-01-28T07:20:56;2.20;99.90
55642;DHT22;41509;53.108;6.100;2023-01-28T07:23:21;2.20;99.90
55642;DHT22;41509;53.108;6.100;2023-01-28T07:25:47;2.10;99.90
55642;DHT22;41509;53.108;6.100;2023-01-28T07:28:13;2.10;99.90
55642;DHT22;41509;53.108;6.100;2023-01-28T07:30:38;2.00;99.90
55642;DHT22;41509;53.108;6.100;2023-01-28T07:33:04;2.00;99.90
55642;DHT22;41509;53.108;6.100;2023-01-28T07:35:30;1.90;99.90
55642;DHT22;41509;53.108;6.100;2023-01-28T07:37:57;1.90;99.90
55642;DHT22;41509;53.108;6.100;2023-01-28T07:40:24;1.80;99.90
55642;DHT22;41509;53.108;6.100;2023-01-28T07:42:50;1.80;99.90
55642;DHT22;41509;53.108;6.100;2023-01-28T07:45:17;1.80;99.90
55642;DHT22;41509;53.108;6.100;2023-01-28T07:47:43;1.80;99.90
55642;DHT22;41509;53.108;6.100;2023-01-28T07:50:10;1.70;99.90
55642;DHT22;41509;53.108;6.100;2023-01-28T07:52:36;1.80;99.90
55642;DHT22;41509;53.108;6.100;2023-01-28T07:55:10;1.70;99.90
55642;DHT22;41509;53.108;6.100;2023-01-28T07:57:52;1.70;99.90
55642;DHT22;41509;53.108;6.100;2023-01-28T08:00:20;1.70;99.90
55642;DHT22;41509;53.108;6.100;2023-01-28T08:02:47;1.70;99.90
55642;DHT22;41509;53.108;6.100;2023-01-28T08:05:17;1.80;99.90
55642;DHT22;41509;53.108;6.100;2023-01-28T08:07:43;1.80;99.90
55642;DHT22;41509;53.108;6.100;2023-01-28T08:10:10;1.80;99.90
55642;DHT22;41509;53.108;6.100;2023-01-28T08:12:37;1.80;99.90
55642;DHT22;41509;53.108;6.100;2023-01-28T08:15:04;1.80;99.90
55642;DHT22;41509;53.108;6.100;2023-01-28T08:17:30;1.90;99.90
55642;DHT22;41509;53.108;6.100;2023-01-28T08:19:56;1.90;99.90
55642;DHT22;41509;53.108;6.100;2023-01-28T08:22:27;1.90;99.90
55642;DHT22;41509;53.108;6.100;2023-01-28T08:24:53;1.90;99.90
55642;DHT22;41509;53.108;6.100;2023-01-28T08:27:19;2.00;99.90
55642;DHT22;41509;53.108;6.100;2023-01-28T08:29:44;2.00;99.90
55642;DHT22;41509;53.108;6.100;2023-01-28T08:32:10;2.00;99.90
55642;DHT22;41509;53.108;6.100;2023-01-28T08:34:36;2.10;99.90
55642;DHT22;41509;53.108;6.100;2023-01-28T08:37:01;2.10;99.90
55642;DHT22;41509;53.108;6.100;2023-01-28T08:39:27;2.10;99.90
55642;DHT22;41509;53.108;6.100;2023-01-28T08:41:52;2.20;99.90
55642;DHT22;41509;53.108;6.100;2023-01-28T08:44:18;2.20;99.90
55642;DHT22;41509;53.108;6.100;2023-01-28T08:46:44;2.20;99.90
55642;DHT22;41509;53.108;6.100;2023-01-28T08:49:09;2.30;99.90
55642;DHT22;41509;53.108;6.100;2023-01-28T08:51:35;2.30;99.90
55642;DHT22;41509;53.108;6.100;2023-01-28T08:54:01;2.30;99.90
55642;DHT22;41509;53.108;6.100;2023-01-28T08:56:26;2.30;99.90
55642;DHT22;41509;53.108;6.100;2023-01-28T08:58:52;2.30;99.90
55642;DHT22;41509;53.108;6.100;2023-01-28T09:01:18;2.30;99.90
55642;DHT22;41509;53.108;6.100;2023-01-28T09:03:43;2.40;99.90
55642;DHT22;41509;53.108;6.100;2023-01-28T09:06:09;2.40;99.90
55642;DHT22;41509;53.108;6.100;2023-01-28T09:08:35;2.50;99.90
55642;DHT22;41509;53.108;6.100;2023-01-28T09:11:00;2.40;99.90
55642;DHT22;41509;53.108;6.100;2023-01-28T09:13:27;2.50;99.90
55642;DHT22;41509;53.108;6.100;2023-01-28T09:15:54;2.50;99.90
55642;DHT22;41509;53.108;6.100;2023-01-28T09:18:20;2.60;99.90
55642;DHT22;41509;53.108;6.100;2023-01-28T09:20:46;2.60;99.90
55642;DHT22;41509;53.108;6.100;2023-01-28T09:23:12;2.60;99.90
55642;DHT22;41509;53.108;6.100;2023-01-28T09:25:38;2.70;99.90
55642;DHT22;41509;53.108;6.100;2023-01-28T09:28:04;2.60;99.90
55642;DHT22;41509;53.108;6.100;2023-01-28T09:30:30;2.70;99.90
55642;DHT22;41509;53.108;6.100;2023-01-28T09:32:56;2.70;99.90
55642;DHT22;41509;53.108;6.100;2023-01-28T09:35:23;2.70;99.90
55642;DHT22;41509;53.108;6.100;2023-01-28T09:37:49;2.70;99.90
55642;DHT22;41509;53.108;6.100;2023-01-28T09:40:25;2.70;99.90
55642;DHT22;41509;53.108;6.100;2023-01-28T09:43:39;2.80;99.90
55642;DHT22;41509;53.108;6.100;2023-01-28T09:45:42;2.80;99.90
55642;DHT22;41509;53.108;6.100;2023-01-28T09:48:13;2.90;99.90
55642;DHT22;41509;53.108;6.100;2023-01-28T09:50:42;2.90;99.90
55642;DHT22;41509;53.108;6.100;2023-01-28T09:53:14;3.00;99.90
55642;DHT22;41509;53.108;6.100;2023-01-28T09:55:50;3.10;99.90
55642;DHT22;41509;53.108;6.100;2023-01-28T09:58:19;3.10;99.90
55642;DHT22;41509;53.108;6.100;2023-01-28T10:10:32;3.40;99.90
55642;DHT22;41509;53.108;6.100;2023-01-28T10:18:14;3.20;99.90
55642;DHT22;41509;53.108;6.100;2023-01-28T10:20:53;3.20;99.90
55642;DHT22;41509;53.108;6.100;2023-01-28T10:23:45;3.30;99.90
55642;DHT22;41509;53.108;6.100;2023-01-28T10:26:37;3.40;99.90
55642;DHT22;41509;53.108;6.100;2023-01-28T10:29:13;3.60;99.90
55642;DHT22;41509;53.108;6.100;2023-01-28T10:34:23;4.10;99.90
55642;DHT22;41509;53.108;6.100;2023-01-28T10:36:50;4.20;99.90
55642;DHT22;41509;53.108;6.100;2023-01-28T10:39:19;4.30;99.90
55642;DHT22;41509;53.108;6.100;2023-01-28T10:41:45;4.30;99.90
55642;DHT22;41509;53.108;6.100;2023-01-28T10:44:44;4.30;99.90
55642;DHT22;41509;53.108;6.100;2023-01-28T10:47:13;4.30;99.90
55642;DHT22;41509;53.108;6.100;2023-01-28T10:49:48;4.30;99.90
55642;DHT22;41509;53.108;6.100;2023-01-28T10:52:16;4.30;99.90
55642;DHT22;41509;53.108;6.100;2023-01-28T10:54:43;4.40;99.90
55642;DHT22;41509;53.108;6.100;2023-01-28T10:57:15;4.40;99.90
55642;DHT22;41509;53.108;6.100;2023-01-28T10:59:42;4.40;99.90
55642;DHT22;41509;53.108;6.100;2023-01-28T11:05:00;4.40;99.90
55642;DHT22;41509;53.108;6.100;2023-01-28T11:07:26;4.50;99.90
55642;DHT22;41509;53.108;6.100;2023-01-28T11:09:51;4.50;99.90
55642;DHT22;41509;53.108;6.100;2023-01-28T11:12:25;4.60;99.90
55642;DHT22;41509;53.108;6.100;2023-01-28T11:15:04;4.60;99.90
55642;DHT22;41509;53.108;6.100;2023-01-28T11:17:32;4.60;99.90
55642;DHT22;41509;53.108;6.100;2023-01-28T11:20:08;4.70;99.90
55642;DHT22;41509;53.108;6.100;2023-01-28T11:22:39;4.80;99.90
55642;DHT22;41509;53.108;6.100;2023-01-28T11:25:27;4.80;99.90
55642;DHT22;41509;53.108;6.100;2023-01-28T11:27:53;4.90;99.90
55642;DHT22;41509;53.108;6.100;2023-01-28T11:30:26;4.90;99.90
55642;DHT22;41509;53.108;6.100;2023-01-28T11:32:57;4.90;99.90
55642;DHT22;41509;53.108;6.100;2023-01-28T11:35:29;5.00;99.90
55642;DHT22;41509;53.108;6.100;2023-01-28T11:37:59;4.90;99.90
55642;DHT22;41509;53.108;6.100;2023-01-28T11:40:25;4.90;99.90
55642;DHT22;41509;53.108;6.100;2023-01-28T11:42:54;4.90;99.90
55642;DHT22;41509;53.108;6.100;2023-01-28T11:45:38;4.90;99.90
55642;DHT22;41509;53.108;6.100;2023-01-28T11:48:09;4.90;99.90
55642;DHT22;41509;53.108;6.100;2023-01-28T11:50:51;4.90;99.90
55642;DHT22;41509;53.108;6.100;2023-01-28T11:56:36;5.00;99.90
55642;DHT22;41509;53.108;6.100;2023-01-28T11:59:18;5.10;99.90
55642;DHT22;41509;53.108;6.100;2023-01-28T12:01:46;5.20;99.90
55642;DHT22;41509;53.108;6.100;2023-01-28T12:04:42;5.20;99.90
55642;DHT22;41509;53.108;6.100;2023-01-28T12:12:48;5.20;99.90
55642;DHT22;41509;53.108;6.100;2023-01-28T12:21:42;5.10;99.90
55642;DHT22;41509;53.108;6.100;2023-01-28T12:33:02;5.20;99.90
55642;DHT22;41509;53.108;6.100;2023-01-28T12:41:13;5.80;99.90
55642;DHT22;41509;53.108;6.100;2023-01-28T12:43:50;5.90;99.90
55642;DHT22;41509;53.108;6.100;2023-01-28T12:46:26;6.00;99.90
55642;DHT22;41509;53.108;6.100;2023-01-28T12:49:08;6.00;99.90
55642;DHT22;41509;53.108;6.100;2023-01-28T12:57:22;6.30;99.90
55642;DHT22;41509;53.108;6.100;2023-01-28T13:02:32;6.30;99.90
55642;DHT22;41509;53.108;6.100;2023-01-28T13:05:09;6.40;99.90
55642;DHT22;41509;53.108;6.100;2023-01-28T13:10:24;6.60;99.90
55642;DHT22;41509;53.108;6.100;2023-01-28T13:12:51;6.50;99.90
55642;DHT22;41509;53.108;6.100;2023-01-28T13:15:19;6.40;99.90
55642;DHT22;41509;53.108;6.100;2023-01-28T13:20:46;6.20;99.90
55642;DHT22;41509;53.108;6.100;2023-01-28T13:25:56;6.40;99.90
55642;DHT22;41509;53.108;6.100;2023-01-28T13:33:33;6.50;99.90
55642;DHT22;41509;53.108;6.100;2023-01-28T13:36:06;6.50;99.90
55642;DHT22;41509;53.108;6.100;2023-01-28T13:38:34;6.50;99.90
55642;DHT22;41509;53.108;6.100;2023-01-28T13:41:00;6.60;99.90
55642;DHT22;41509;53.108;6.100;2023-01-28T13:43:34;6.70;99.90
55642;DHT22;41509;53.108;6.100;2023-01-28T13:46:11;6.80;99.90
55642;DHT22;41509;53.108;6.100;2023-01-28T13:51:20;6.90;99.90
55642;DHT22;41509;53.108;6.100;2023-01-28T13:59:20;6.50;99.90
55642;DHT22;41509;53.108;6.100;2023-01-28T14:02:35;6.40;99.90
55642;DHT22;41509;53.108;6.100;2023-01-28T14:18:59;6.00;99.90
55642;DHT22;41509;53.108;6.100;2023-01-28T14:21:26;6.00;99.90
55642;DHT22;41509;53.108;6.100;2023-01-28T14:23:54;5.90;99.90
55642;DHT22;41509;53.108;6.100;2023-01-28T14:26:41;5.80;99.90
55642;DHT22;41509;53.108;6.100;2023-01-28T14:32:29;5.80;99.90
55642;DHT22;41509;53.108;6.100;2023-01-28T14:35:03;5.70;99.90
55642;DHT22;41509;53.108;6.100;2023-01-28T14:37:31;5.70;99.90
55642;DHT22;41509;53.108;6.100;2023-01-28T14:40:03;5.60;99.90
55642;DHT22;41509;53.108;6.100;2023-01-28T14:42:39;5.60;99.90
55642;DHT22;41509;53.108;6.100;2023-01-28T14:53:38;5.50;99.90
55642;DHT22;41509;53.108;6.100;2023-01-28T15:01:44;5.40;99.90
55642;DHT22;41509;53.108;6.100;2023-01-28T15:04:39;5.40;99.90
55642;DHT22;41509;53.108;6.100;2023-01-28T15:07:19;5.40;99.90
55642;DHT22;41509;53.108;6.100;2023-01-28T15:09:45;5.40;99.90
55642;DHT22;41509;53.108;6.100;2023-01-28T15:12:12;5.40;99.90
55642;DHT22;41509;53.108;6.100;2023-01-28T15:14:39;5.30;99.90
55642;DHT22;41509;53.108;6.100;2023-01-28T15:17:05;5.30;99.90
55642;DHT22;41509;53.108;6.100;2023-01-28T15:19:35;5.30;99.90
55642;DHT22;41509;53.108;6.100;2023-01-28T15:22:04;5.30;99.90
55642;DHT22;41509;53.108;6.100;2023-01-28T15:24:31;5.30;99.90
55642;DHT22;41509;53.108;6.100;2023-01-28T15:26:58;5.20;99.90
55642;DHT22;41509;53.108;6.100;2023-01-28T15:29:32;5.20;99.90
55642;DHT22;41509;53.108;6.100;2023-01-28T15:32:00;5.20;99.90
55642;DHT22;41509;53.108;6.100;2023-01-28T15:34:26;5.30;99.90
55642;DHT22;41509;53.108;6.100;2023-01-28T15:36:56;5.20;99.90
55642;DHT22;41509;53.108;6.100;2023-01-28T15:39:23;5.20;99.90
55642;DHT22;41509;53.108;6.100;2023-01-28T15:42:00;5.20;99.90
55642;DHT22;41509;53.108;6.100;2023-01-28T15:44:28;5.20;99.90
55642;DHT22;41509;53.108;6.100;2023-01-28T15:46:58;5.20;99.90
55642;DHT22;41509;53.108;6.100;2023-01-28T15:49:33;5.20;99.90
55642;DHT22;41509;53.108;6.100;2023-01-28T15:51:59;5.20;99.90
55642;DHT22;41509;53.108;6.100;2023-01-28T15:54:25;5.20;99.90
55642;DHT22;41509;53.108;6.100;2023-01-28T15:56:51;5.10;99.90
55642;DHT22;41509;53.108;6.100;2023-01-28T15:59:24;5.10;99.90
55642;DHT22;41509;53.108;6.100;2023-01-28T16:01:50;5.10;99.90
55642;DHT22;41509;53.108;6.100;2023-01-28T16:04:28;5.10;99.90
55642;DHT22;41509;53.108;6.100;2023-01-28T16:06:55;5.00;99.90
55642;DHT22;41509;53.108;6.100;2023-01-28T16:09:27;5.00;99.90
55642;DHT22;41509;53.108;6.100;2023-01-28T16:12:01;5.00;99.90
55642;DHT22;41509;53.108;6.100;2023-01-28T16:14:29;5.00;99.90
55642;DHT22;41509;53.108;6.100;2023-01-28T16:16:56;4.90;99.90
55642;DHT22;41509;53.108;6.100;2023-01-28T16:22:02;4.90;99.90
55642;DHT22;41509;53.108;6.100;2023-01-28T16:24:31;4.90;99.90
55642;DHT22;41509;53.108;6.100;2023-01-28T16:27:20;4.90;99.90
55642;DHT22;41509;53.108;6.100;2023-01-28T16:29:46;4.80;99.90
55642;DHT22;41509;53.108;6.100;2023-01-28T16:32:34;4.80;99.90
55642;DHT22;41509;53.108;6.100;2023-01-28T16:35:00;4.70;99.90
55642;DHT22;41509;53.108;6.100;2023-01-28T16:37:27;4.70;99.90
55642;DHT22;41509;53.108;6.100;2023-01-28T16:39:53;4.70;99.90
55642;DHT22;41509;53.108;6.100;2023-01-28T16:42:19;4.70;99.90
55642;DHT22;41509;53.108;6.100;2023-01-28T16:44:44;4.70;99.90
55642;DHT22;41509;53.108;6.100;2023-01-28T16:47:10;4.60;99.90
55642;DHT22;41509;53.108;6.100;2023-01-28T16:49:36;4.60;99.90
55642;DHT22;41509;53.108;6.100;2023-01-28T16:52:02;4.60;99.90
55642;DHT22;41509;53.108;6.100;2023-01-28T16:54:29;4.60;99.90
55642;DHT22;41509;53.108;6.100;2023-01-28T16:56:55;4.60;99.90
55642;DHT22;41509;53.108;6.100;2023-01-28T16:59:21;4.60;99.90
55642;DHT22;41509;53.108;6.100;2023-01-28T17:01:47;4.60;99.90
55642;DHT22;41509;53.108;6.100;2023-01-28T17:04:13;4.60;99.90
55642;DHT22;41509;53.108;6.100;2023-01-28T17:06:40;4.60;99.90
55642;DHT22;41509;53.108;6.100;2023-01-28T17:09:07;4.60;99.90
55642;DHT22;41509;53.108;6.100;2023-01-28T17:11:33;4.60;99.90
55642;DHT22;41509;53.108;6.100;2023-01-28T17:13:59;4.60;99.90
55642;DHT22;41509;53.108;6.100;2023-01-28T17:16:25;4.60;99.90
55642;DHT22;41509;53.108;6.100;2023-01-28T17:18:53;4.60;99.90
55642;DHT22;41509;53.108;6.100;2023-01-28T17:21:19;4.50;99.90
55642;DHT22;41509;53.108;6.100;2023-01-28T17:23:45;4.60;99.90
55642;DHT22;41509;53.108;6.100;2023-01-28T17:26:13;4.50;99.90
55642;DHT22;41509;53.108;6.100;2023-01-28T17:28:39;4.60;99.90
55642;DHT22;41509;53.108;6.100;2023-01-28T17:31:09;4.60;99.90
55642;DHT22;41509;53.108;6.100;2023-01-28T17:33:39;4.60;99.90
55642;DHT22;41509;53.108;6.100;2023-01-28T17:36:06;4.60;99.90
55642;DHT22;41509;53.108;6.100;2023-01-28T17:38:32;4.60;99.90
55642;DHT22;41509;53.108;6.100;2023-01-28T17:41:06;4.60;99.90
55642;DHT22;41509;53.108;6.100;2023-01-28T17:43:32;4.60;99.90
55642;DHT22;41509;53.108;6.100;2023-01-28T17:45:59;4.60;99.90
55642;DHT22;41509;53.108;6.100;2023-01-28T17:48:25;4.60;99.90
55642;DHT22;41509;53.108;6.100;2023-01-28T17:50:55;4.60;99.90
55642;DHT22;41509;53.108;6.100;2023-01-28T17:53:21;4.60;99.90
55642;DHT22;41509;53.108;6.100;2023-01-28T17:55:46;4.60;99.90
55642;DHT22;41509;53.108;6.100;2023-01-28T17:58:12;4.60;99.90
55642;DHT22;41509;53.108;6.100;2023-01-28T18:00:37;4.60;99.90
55642;DHT22;41509;53.108;6.100;2023-01-28T18:03:03;4.60;99.90
55642;DHT22;41509;53.108;6.100;2023-01-28T18:05:29;4.60;99.90